createdAt,value
2023-01-11T00:00:55.779Z,55.66
2023-01-11T00:03:22.433Z,55.82
2023-01-11T00:05:49.045Z,55.74
2023-01-11T00:08:15.721Z,55.68
2023-01-11T00:10:42.659Z,55.67
2023-01-11T00:13:09.418Z,55.88
2023-01-11T00:15:38.356Z,55.67
2023-01-11T00:18:05.151Z,55.86
2023-01-11T00:20:32.374Z,56.08
2023-01-11T00:22:59.435Z,55.80
2023-01-11T00:25:26.166Z,56.05
2023-01-11T00:27:54.515Z,56.02
2023-01-11T00:30:21.371Z,55.89
2023-01-11T00:32:48.021Z,56.08
2023-01-11T00:35:15.336Z,56.17
2023-01-11T00:37:42.156Z,55.83
2023-01-11T00:40:09.291Z,56.10
2023-01-11T00:42:54.493Z,56.11
2023-01-11T00:45:40.109Z,56.20
2023-01-11T00:48:07.711Z,56.17
2023-01-11T00:50:36.990Z,56.02
2023-01-11T00:53:04.745Z,56.07
2023-01-11T00:55:34.219Z,56.21
2023-01-11T00:58:01.353Z,55.94
2023-01-11T01:00:28.949Z,56.18
2023-01-11T01:02:55.694Z,56.15
2023-01-11T01:05:22.477Z,56.14
2023-01-11T01:07:49.236Z,56.08
2023-01-11T01:10:17.748Z,56.18
2023-01-11T01:13:03.363Z,56.06
2023-01-11T01:15:30.240Z,55.75
2023-01-11T01:17:57.334Z,56.08
2023-01-11T01:20:24.747Z,56.06
2023-01-11T01:22:51.903Z,56.02
2023-01-11T01:25:19.141Z,55.70
2023-01-11T01:27:45.918Z,56.26
2023-01-11T01:30:12.926Z,55.95
2023-01-11T01:32:39.895Z,56.35
2023-01-11T01:35:06.842Z,56.08
2023-01-11T01:37:34.088Z,55.85
2023-01-11T01:40:00.902Z,55.98
2023-01-11T01:42:27.492Z,56.13
2023-01-11T01:45:24.029Z,55.78
2023-01-11T01:48:01.557Z,55.90
2023-01-11T01:50:33.159Z,55.77
2023-01-11T01:53:14.182Z,55.68
2023-01-11T01:55:45.745Z,55.63
2023-01-11T01:58:16.180Z,56.08
2023-01-11T02:00:44.963Z,56.32
2023-01-11T02:03:17.482Z,56.19
2023-01-11T02:05:44.954Z,55.98
2023-01-11T02:08:49.200Z,55.76
2023-01-11T02:11:32.723Z,56.15
2023-01-11T02:14:04.101Z,56.28
2023-01-11T02:16:30.912Z,56.04
2023-01-11T02:19:00.924Z,55.83
2023-01-11T02:21:57.507Z,55.89
2023-01-11T02:25:01.417Z,56.33
2023-01-11T02:27:46.908Z,56.13
2023-01-11T02:30:32.699Z,56.12
2023-01-11T02:33:17.622Z,56.31
2023-01-11T02:36:08.451Z,56.36
2023-01-11T02:38:56.659Z,56.17
2023-01-11T02:41:53.263Z,56.50
2023-01-11T02:44:52.598Z,56.40
2023-01-11T02:47:25.055Z,56.28
2023-01-11T02:50:04.165Z,56.60
2023-01-11T02:53:14.337Z,56.62
2023-01-11T02:55:48.193Z,56.39
2023-01-11T02:58:17.149Z,56.19
2023-01-11T03:00:46.404Z,56.65
2023-01-11T03:03:24.970Z,56.52
2023-01-11T03:06:06.505Z,56.63
2023-01-11T03:09:02.541Z,56.86
2023-01-11T03:12:05.975Z,56.59
2023-01-11T03:15:04.635Z,56.59
2023-01-11T03:17:56.278Z,56.80
2023-01-11T03:20:31.336Z,56.46
2023-01-11T03:23:24.347Z,56.60
2023-01-11T03:25:59.935Z,56.82
2023-01-11T03:28:29.295Z,56.79
2023-01-11T03:31:06.764Z,56.82
2023-01-11T03:33:46.285Z,56.65
2023-01-11T03:36:34.302Z,56.69
2023-01-11T03:39:45.967Z,56.80
2023-01-11T03:42:16.888Z,56.91
2023-01-11T03:44:46.901Z,56.99
2023-01-11T03:47:16.764Z,57.37
2023-01-11T03:49:49.023Z,57.34
2023-01-11T03:52:17.971Z,57.04
2023-01-11T03:54:45.529Z,56.89
2023-01-11T03:57:20.264Z,57.25
2023-01-11T03:59:47.834Z,56.96
2023-01-11T04:02:15.895Z,57.00
2023-01-11T04:04:42.582Z,56.89
2023-01-11T04:07:09.264Z,57.23
2023-01-11T04:09:38.168Z,57.10
2023-01-11T04:12:05.650Z,57.20
2023-01-11T04:14:32.674Z,57.47
2023-01-11T04:16:59.627Z,57.30
2023-01-11T04:19:26.202Z,57.23
2023-01-11T04:21:52.921Z,57.51
2023-01-11T04:24:19.871Z,57.38
2023-01-11T04:26:46.565Z,57.58
2023-01-11T04:29:13.575Z,57.51
2023-01-11T04:31:40.585Z,57.55
2023-01-11T04:34:07.347Z,57.44
2023-01-11T04:36:34.105Z,57.30
2023-01-11T04:39:00.925Z,57.39
2023-01-11T04:41:46.123Z,57.34
2023-01-11T04:44:12.930Z,57.74
2023-01-11T04:46:39.733Z,57.50
2023-01-11T04:49:06.575Z,57.65
2023-01-11T04:51:33.318Z,57.73
2023-01-11T04:54:00.081Z,57.49
2023-01-11T04:56:26.884Z,57.60
2023-01-11T04:58:54.016Z,57.65
2023-01-11T05:01:20.841Z,57.62
2023-01-11T05:03:47.603Z,57.78
2023-01-11T05:06:14.637Z,57.78
2023-01-11T05:08:45.740Z,57.71
2023-01-11T05:11:12.478Z,57.84
2023-01-11T05:13:42.195Z,57.76
2023-01-11T05:16:09.300Z,57.91
2023-01-11T05:18:38.788Z,58.16
2023-01-11T05:21:06.521Z,57.75
2023-01-11T05:23:36.160Z,57.83
2023-01-11T05:26:05.207Z,57.63
2023-01-11T05:28:32.090Z,57.98
2023-01-11T05:30:59.114Z,58.26
2023-01-11T05:33:26.312Z,58.26
2023-01-11T05:36:06.967Z,58.05
2023-01-11T05:38:34.397Z,58.48
2023-01-11T05:41:03.573Z,58.01
2023-01-11T05:43:31.349Z,58.35
2023-01-11T05:45:59.074Z,58.96
2023-01-11T05:48:25.733Z,58.52
2023-01-11T05:50:54.088Z,58.37
2023-01-11T05:53:23.194Z,58.34
2023-01-11T05:55:58.557Z,58.37
2023-01-11T05:58:26.879Z,58.54
2023-01-11T06:00:55.455Z,58.58
2023-01-11T06:03:23.999Z,58.38
2023-01-11T06:05:51.867Z,58.26
2023-01-11T06:08:19.189Z,58.47
2023-01-11T06:10:53.437Z,58.10
2023-01-11T06:13:27.148Z,58.51
2023-01-11T06:16:13.069Z,58.27
2023-01-11T06:18:46.085Z,58.49
2023-01-11T06:21:13.638Z,58.36
2023-01-11T06:23:42.829Z,58.44
2023-01-11T06:26:13.256Z,58.26
2023-01-11T06:28:41.210Z,58.77
2023-01-11T06:31:08.079Z,58.51
2023-01-11T06:33:35.910Z,58.16
2023-01-11T06:36:06.444Z,58.46
2023-01-11T06:38:34.529Z,58.55
2023-01-11T06:41:02.738Z,58.43
2023-01-11T06:43:30.951Z,58.28
2023-01-11T06:45:59.264Z,58.34
2023-01-11T06:48:27.572Z,58.01
2023-01-11T06:50:56.673Z,58.38
2023-01-11T06:53:27.344Z,58.22
2023-01-11T06:55:58.215Z,58.17
2023-01-11T06:58:26.313Z,58.41
2023-01-11T07:00:54.936Z,58.30
2023-01-11T07:03:23.994Z,58.17
2023-01-11T07:05:52.520Z,58.43
2023-01-11T07:08:19.763Z,58.65
2023-01-11T07:10:46.645Z,58.75
2023-01-11T07:13:16.197Z,58.17
2023-01-11T07:15:44.649Z,58.21
2023-01-11T07:18:11.931Z,58.13
2023-01-11T07:20:38.628Z,57.87
2023-01-11T07:23:05.283Z,58.12
2023-01-11T07:25:31.997Z,58.30
2023-01-11T07:28:06.847Z,58.62
2023-01-11T07:30:47.845Z,58.34
2023-01-11T07:33:22.193Z,58.32
2023-01-11T07:35:49.548Z,58.29
2023-01-11T07:38:19.033Z,58.54
2023-01-11T07:40:45.652Z,58.62
2023-01-11T07:43:18.929Z,58.52
2023-01-11T07:45:49.326Z,58.41
2023-01-11T07:48:21.313Z,58.34
2023-01-11T07:50:49.400Z,58.25
2023-01-11T07:53:16.800Z,58.45
2023-01-11T07:55:43.677Z,58.44
2023-01-11T07:58:14.571Z,58.25
2023-01-11T08:00:41.796Z,58.41
2023-01-11T08:03:08.764Z,58.45
2023-01-11T08:05:35.753Z,58.50
2023-01-11T08:08:03.006Z,58.72
2023-01-11T08:10:29.872Z,58.72
2023-01-11T08:13:15.358Z,58.41
2023-01-11T08:15:45.250Z,58.57
2023-01-11T08:18:13.282Z,58.46
2023-01-11T08:20:40.626Z,58.47
2023-01-11T08:23:10.058Z,58.65
2023-01-11T08:25:37.603Z,58.58
2023-01-11T08:28:06.493Z,58.44
2023-01-11T08:30:33.639Z,58.74
2023-01-11T08:33:01.305Z,58.54
2023-01-11T08:35:28.093Z,58.77
2023-01-11T08:37:54.763Z,58.46
2023-01-11T08:40:23.899Z,58.58
2023-01-11T08:42:56.681Z,58.29
2023-01-11T08:45:23.553Z,58.47
2023-01-11T08:47:51.874Z,58.64
2023-01-11T08:50:19.643Z,58.76
2023-01-11T08:52:47.245Z,58.84
2023-01-11T08:55:13.898Z,58.81
2023-01-11T08:57:40.512Z,58.67
2023-01-11T09:00:11.231Z,58.62
2023-01-11T09:02:38.000Z,58.38
2023-01-11T09:05:05.217Z,58.58
2023-01-11T09:07:31.891Z,58.99
2023-01-11T09:09:58.609Z,58.68
2023-01-11T09:12:27.113Z,58.95
2023-01-11T09:14:53.826Z,58.62
2023-01-11T09:17:20.580Z,58.60
2023-01-11T09:19:47.127Z,58.79
2023-01-11T09:22:13.892Z,58.72
2023-01-11T09:24:40.542Z,58.76
2023-01-11T09:27:07.277Z,58.45
2023-01-11T09:29:37.029Z,58.66
2023-01-11T09:32:04.315Z,58.79
2023-01-11T09:34:31.459Z,58.66
2023-01-11T09:37:00.673Z,58.50
2023-01-11T09:39:28.893Z,58.64
2023-01-11T09:42:17.286Z,58.79
2023-01-11T09:44:54.307Z,58.91
2023-01-11T09:47:29.870Z,58.82
2023-01-11T09:50:01.014Z,58.63
2023-01-11T09:52:39.745Z,58.51
2023-01-11T09:55:15.187Z,59.00
2023-01-11T09:58:02.335Z,58.79
2023-01-11T10:00:52.896Z,58.74
2023-01-11T10:03:38.217Z,58.95
2023-01-11T10:06:18.521Z,58.92
2023-01-11T10:18:31.356Z,58.70
2023-01-11T10:19:12.260Z,58.74
2023-01-11T10:21:21.314Z,59.08
2023-01-11T10:24:04.659Z,58.71
2023-01-11T10:26:39.463Z,58.65
2023-01-11T10:29:21.254Z,58.81
2023-01-11T10:32:02.428Z,58.70
2023-01-11T10:34:56.732Z,59.12
2023-01-11T10:37:46.724Z,59.04
2023-01-11T10:40:57.796Z,59.00
2023-01-11T10:43:26.814Z,58.97
2023-01-11T10:45:58.042Z,58.57
2023-01-11T10:48:36.949Z,58.96
2023-01-11T10:51:29.397Z,58.78
2023-01-11T10:54:17.904Z,57.76
2023-01-11T10:57:01.948Z,57.76
2023-01-11T10:59:43.788Z,57.37
2023-01-11T11:02:39.878Z,57.21
2023-01-11T11:05:15.672Z,56.72
2023-01-11T11:08:19.513Z,56.22
2023-01-11T11:10:52.099Z,55.71
2023-01-11T11:13:37.797Z,55.54
2023-01-11T11:16:24.413Z,55.18
2023-01-11T11:18:54.046Z,54.96
2023-01-11T11:21:28.656Z,54.86
2023-01-11T11:24:13.407Z,54.58
2023-01-11T11:26:45.083Z,54.42
2023-01-11T11:29:21.411Z,54.23
2023-01-11T11:31:49.360Z,54.04
2023-01-11T11:34:21.542Z,54.00
2023-01-11T11:36:50.496Z,53.89
2023-01-11T11:39:31.254Z,53.83
2023-01-11T11:42:07.463Z,53.67
2023-01-11T11:44:34.522Z,53.57
2023-01-11T11:47:15.013Z,53.61
2023-01-11T11:49:42.432Z,53.37
2023-01-11T11:52:17.737Z,53.29
2023-01-11T11:54:56.772Z,53.18
2023-01-11T11:57:28.521Z,53.14
2023-01-11T12:00:03.636Z,52.74
2023-01-11T12:02:33.210Z,52.69
2023-01-11T12:05:05.311Z,52.60
2023-01-11T12:07:40.385Z,52.53
2023-01-11T12:10:20.112Z,52.53
2023-01-11T12:12:58.987Z,52.60
2023-01-11T12:15:29.074Z,52.55
2023-01-11T12:18:16.928Z,52.25
2023-01-11T12:20:47.831Z,53.04
2023-01-11T12:23:21.492Z,52.60
2023-01-11T12:26:13.116Z,52.96
2023-01-11T12:28:48.977Z,52.56
2023-01-11T12:31:50.079Z,52.75
2023-01-11T12:34:19.678Z,51.99
2023-01-11T12:37:27.914Z,51.96
2023-01-11T12:40:01.082Z,52.24
2023-01-11T12:42:42.840Z,52.24
2023-01-11T12:45:12.151Z,52.19
2023-01-11T12:47:44.799Z,52.24
2023-01-11T12:53:24.628Z,51.78
2023-01-11T12:56:24.864Z,51.98
2023-01-11T12:59:01.930Z,51.81
2023-01-11T13:01:53.375Z,51.91
2023-01-11T13:04:58.458Z,51.83
2023-01-11T13:07:43.442Z,51.85
2023-01-11T13:10:36.987Z,51.82
2023-01-11T13:13:09.430Z,51.87
2023-01-11T13:15:46.016Z,51.79
2023-01-11T13:18:22.907Z,51.43
2023-01-11T13:21:21.298Z,51.75
2023-01-11T13:23:54.891Z,51.85
2023-01-11T13:26:37.465Z,51.55
2023-01-11T13:29:15.988Z,51.36
2023-01-11T13:31:45.116Z,51.72
2023-01-11T13:34:22.779Z,51.50
2023-01-11T13:36:55.834Z,51.62
2023-01-11T13:39:28.800Z,51.43
2023-01-11T13:42:00.109Z,51.58
2023-01-11T13:44:38.051Z,51.67
2023-01-11T13:47:09.284Z,51.42
2023-01-11T13:49:53.764Z,51.45
2023-01-11T13:52:33.293Z,51.61
2023-01-11T13:55:25.067Z,51.65
2023-01-11T13:58:11.261Z,51.43
2023-01-11T14:00:49.729Z,51.55
2023-01-11T14:03:33.862Z,51.28
2023-01-11T14:06:34.626Z,51.33
2023-01-11T14:09:25.883Z,51.10
2023-01-11T14:12:13.970Z,50.95
2023-01-11T14:14:43.482Z,50.98
2023-01-11T14:17:16.053Z,51.00
2023-01-11T14:19:42.579Z,51.14
2023-01-11T14:22:18.283Z,50.96
2023-01-11T14:25:13.383Z,51.17
2023-01-11T14:27:55.506Z,51.38
2023-01-11T14:30:37.799Z,51.13
2023-01-11T14:33:41.831Z,51.40
2023-01-11T14:36:08.552Z,50.94
2023-01-11T14:38:41.368Z,50.93
2023-01-11T14:41:20.559Z,50.90
2023-01-11T14:44:23.667Z,50.97
2023-01-11T14:47:08.400Z,51.09
2023-01-11T14:50:08.329Z,50.99
2023-01-11T14:52:40.285Z,50.88
2023-01-11T14:55:31.888Z,50.95
2023-01-11T14:58:26.375Z,51.37
2023-01-11T15:00:56.143Z,50.90
2023-01-11T15:03:22.823Z,50.97
2023-01-11T15:06:00.768Z,51.42
2023-01-11T15:08:42.569Z,51.22
2023-01-11T15:11:21.032Z,51.40
2023-01-11T15:17:12.483Z,51.48
2023-01-11T15:19:43.623Z,51.19
2023-01-11T15:22:25.896Z,51.26
2023-01-11T15:25:19.929Z,51.40
2023-01-11T15:27:48.016Z,51.34
2023-01-11T15:33:19.872Z,51.09
2023-01-11T15:35:55.235Z,51.55
2023-01-11T15:38:34.647Z,51.43
2023-01-11T15:41:24.001Z,51.56
2023-01-11T15:43:59.851Z,51.60
2023-01-11T15:47:05.610Z,51.46
2023-01-11T15:49:47.296Z,51.68
2023-01-11T15:52:37.970Z,51.84
2023-01-11T15:55:40.013Z,51.91
2023-01-11T15:58:25.486Z,51.31
2023-01-11T16:01:07.848Z,51.40
2023-01-11T16:03:54.247Z,51.37
2023-01-11T16:06:24.131Z,51.06
2023-01-11T16:09:13.755Z,51.52
2023-01-11T16:11:48.794Z,51.33
2023-01-11T16:14:39.667Z,51.31
2023-01-11T16:17:21.501Z,51.43
2023-01-11T16:19:53.109Z,51.57
2023-01-11T16:22:22.499Z,51.55
2023-01-11T16:24:52.287Z,51.23
2023-01-11T16:27:28.512Z,51.70
2023-01-11T16:29:55.914Z,51.48
2023-01-11T16:32:27.125Z,51.34
2023-01-11T16:34:56.487Z,51.43
2023-01-11T16:37:26.087Z,51.32
2023-01-11T16:40:02.825Z,51.63
2023-01-11T16:42:35.792Z,51.28
2023-01-11T16:45:07.295Z,51.42
2023-01-11T16:47:36.788Z,51.58
2023-01-11T16:50:25.285Z,51.40
2023-01-11T16:53:03.174Z,51.28
2023-01-11T16:55:32.511Z,51.46
2023-01-11T16:58:04.459Z,51.45
2023-01-11T17:00:36.136Z,51.64
2023-01-11T17:03:22.174Z,51.60
2023-01-11T17:06:00.325Z,51.54
2023-01-11T17:08:31.609Z,51.64
2023-01-11T17:11:10.677Z,51.37
2023-01-11T17:14:18.440Z,51.42
2023-01-11T17:16:51.737Z,51.87
2023-01-11T17:19:21.853Z,51.97
2023-01-11T17:21:51.291Z,51.54
2023-01-11T17:24:23.928Z,51.85
2023-01-11T17:26:55.358Z,52.23
2023-01-11T17:29:40.882Z,52.32
2023-01-11T17:32:15.162Z,51.75
2023-01-11T17:34:42.906Z,51.96
2023-01-11T17:37:14.807Z,52.35
2023-01-11T17:39:46.068Z,52.07
2023-01-11T17:42:34.092Z,52.42
2023-01-11T17:45:14.624Z,52.18
2023-01-11T17:47:47.163Z,52.36
2023-01-11T17:50:28.139Z,52.31
2023-01-11T17:53:16.307Z,52.31
2023-01-11T17:56:30.835Z,52.04
2023-01-11T17:59:20.569Z,51.68
2023-01-11T18:01:50.499Z,51.89
2023-01-11T18:04:20.749Z,52.21
2023-01-11T18:06:49.168Z,51.90
2023-01-11T18:09:28.493Z,52.01
2023-01-11T18:12:20.927Z,52.10
2023-01-11T18:14:54.165Z,52.12
2023-01-11T18:17:35.029Z,51.88
2023-01-11T18:20:23.794Z,51.92
2023-01-11T18:23:03.888Z,52.06
2023-01-11T18:25:34.908Z,52.16
2023-01-11T18:28:29.463Z,51.88
2023-01-11T18:31:01.612Z,52.41
2023-01-11T18:33:33.105Z,52.20
2023-01-11T18:36:03.183Z,52.51
2023-01-11T18:38:34.197Z,52.20
2023-01-11T18:41:26.147Z,52.47
2023-01-11T18:43:54.023Z,52.42
2023-01-11T18:46:21.054Z,52.32
2023-01-11T18:48:47.941Z,52.37
2023-01-11T18:51:39.500Z,52.30
2023-01-11T18:54:06.580Z,52.27
2023-01-11T18:56:33.206Z,52.10
2023-01-11T18:58:59.849Z,52.11
2023-01-11T19:01:26.780Z,52.26
2023-01-11T19:03:53.646Z,52.31
2023-01-11T19:06:22.685Z,52.34
2023-01-11T19:08:49.610Z,52.21
2023-01-11T19:11:16.952Z,52.18
2023-01-11T19:13:46.491Z,52.27
2023-01-11T19:16:13.835Z,52.26
2023-01-11T19:18:40.670Z,52.22
2023-01-11T19:21:09.289Z,52.69
2023-01-11T19:23:36.171Z,52.09
2023-01-11T19:26:02.959Z,52.23
2023-01-11T19:28:30.303Z,52.22
2023-01-11T19:30:57.451Z,52.22
2023-01-11T19:33:25.032Z,52.24
2023-01-11T19:35:52.347Z,52.27
2023-01-11T19:38:20.026Z,52.06
2023-01-11T19:40:50.396Z,51.73
2023-01-11T19:43:17.435Z,52.13
2023-01-11T19:45:44.280Z,51.81
2023-01-11T19:48:12.292Z,52.29
2023-01-11T19:50:38.974Z,51.95
2023-01-11T19:53:05.569Z,52.33
2023-01-11T19:55:32.211Z,51.85
2023-01-11T19:57:58.901Z,51.95
2023-01-11T20:00:25.498Z,52.13
2023-01-11T20:02:52.360Z,51.71
2023-01-11T20:05:19.106Z,52.06
2023-01-11T20:07:45.803Z,52.47
2023-01-11T20:10:12.505Z,51.94
2023-01-11T20:12:39.280Z,51.98
2023-01-11T20:15:06.941Z,52.26
2023-01-11T20:17:35.544Z,52.33
2023-01-11T20:20:02.134Z,52.28
2023-01-11T20:22:29.531Z,51.75
2023-01-11T20:24:56.321Z,52.10
2023-01-11T20:27:23.139Z,52.31
2023-01-11T20:29:50.003Z,52.12
2023-01-11T20:32:39.279Z,52.33
2023-01-11T20:35:04.458Z,51.97
2023-01-11T20:37:31.145Z,52.12
2023-01-11T20:39:57.981Z,51.96
2023-01-11T20:42:24.774Z,52.01
2023-01-11T20:44:51.419Z,52.03
2023-01-11T20:47:18.952Z,51.90
2023-01-11T20:49:45.610Z,52.19
2023-01-11T20:52:12.342Z,52.24
2023-01-11T20:54:39.070Z,52.02
2023-01-11T20:57:12.184Z,52.26
2023-01-11T20:59:39.111Z,51.94
2023-01-11T21:02:07.481Z,52.05
2023-01-11T21:04:35.701Z,51.81
2023-01-11T21:07:02.805Z,51.91
2023-01-11T21:09:29.450Z,51.98
2023-01-11T21:11:56.166Z,52.03
2023-01-11T21:14:22.927Z,51.82
2023-01-11T21:16:50.060Z,51.88
2023-01-11T21:19:16.808Z,51.97
2023-01-11T21:21:43.632Z,51.96
2023-01-11T21:24:13.563Z,51.80
2023-01-11T21:26:42.478Z,52.01
2023-01-11T21:29:11.548Z,51.71
2023-01-11T21:31:39.461Z,51.83
2023-01-11T21:34:06.642Z,52.21
2023-01-11T21:36:34.379Z,51.81
2023-01-11T21:39:02.631Z,52.01
2023-01-11T21:41:50.374Z,51.98
2023-01-11T21:44:18.764Z,52.26
2023-01-11T21:46:46.325Z,51.95
2023-01-11T21:49:14.088Z,52.21
2023-01-11T21:51:41.749Z,51.88
2023-01-11T21:54:11.175Z,51.92
2023-01-11T21:56:37.935Z,52.10
2023-01-11T21:59:05.048Z,52.26
2023-01-11T22:01:31.803Z,52.22
2023-01-11T22:03:58.928Z,52.12
2023-01-11T22:06:25.880Z,52.02
2023-01-11T22:08:52.698Z,52.13
2023-01-11T22:11:19.488Z,52.01
2023-01-11T22:13:46.109Z,52.14
2023-01-11T22:16:15.450Z,51.78
2023-01-11T22:18:42.857Z,52.20
2023-01-11T22:21:15.341Z,51.86
2023-01-11T22:23:42.151Z,51.81
2023-01-11T22:26:14.366Z,52.17
2023-01-11T22:29:01.056Z,52.18
2023-01-11T22:31:29.067Z,51.80
2023-01-11T22:33:56.555Z,52.03
2023-01-11T22:36:24.517Z,52.27
2023-01-11T22:38:52.385Z,52.17
2023-01-11T22:41:19.562Z,52.66
2023-01-11T22:43:47.019Z,52.96
2023-01-11T22:46:19.405Z,52.85
2023-01-11T22:48:48.447Z,52.88
2023-01-11T22:51:17.349Z,52.92
2023-01-11T22:53:46.121Z,52.83
2023-01-11T22:56:15.106Z,52.73
2023-01-11T22:58:41.795Z,53.07
2023-01-11T23:01:36.565Z,52.62
2023-01-11T23:04:04.820Z,52.73
2023-01-11T23:06:36.862Z,52.85
2023-01-11T23:09:05.102Z,52.83
2023-01-11T23:11:54.566Z,52.59
2023-01-11T23:14:21.714Z,52.65
2023-01-11T23:16:49.899Z,53.35
2023-01-11T23:19:19.247Z,53.33
2023-01-11T23:21:46.443Z,53.12
2023-01-11T23:24:15.107Z,53.12
2023-01-11T23:26:42.091Z,52.91
2023-01-11T23:29:08.819Z,53.25
2023-01-11T23:31:35.692Z,52.79
2023-01-11T23:34:04.052Z,53.10
2023-01-11T23:36:34.231Z,53.65
2023-01-11T23:39:01.167Z,53.83
2023-01-11T23:41:46.990Z,54.25
2023-01-11T23:44:15.351Z,54.14
2023-01-11T23:47:01.229Z,54.14
2023-01-11T23:49:29.460Z,54.41
2023-01-11T23:51:56.588Z,54.24
2023-01-11T23:54:26.914Z,54.41
2023-01-11T23:56:53.612Z,54.22
2023-01-11T23:59:20.200Z,54.38
